sensor_id;sensor_type;location;lat;lon;timestamp;P1;durP1;ratioP1;P2;durP2;ratioP2
21352;SDS011;10834;52.268;6.770;2023-04-10T00:00:55;53.03;;;36.13;;
21352;SDS011;10834;52.268;6.770;2023-04-10T00:03:42;51.70;;;34.67;;
21352;SDS011;10834;52.268;6.770;2023-04-10T00:06:28;56.37;;;36.83;;
21352;SDS011;10834;52.268;6.770;2023-04-10T00:09:14;56.03;;;35.37;;
21352;SDS011;10834;52.268;6.770;2023-04-10T00:12:00;51.40;;;34.40;;
21352;SDS011;10834;52.268;6.770;2023-04-10T00:14:46;57.10;;;35.60;;
21352;SDS011;10834;52.268;6.770;2023-04-10T00:17:32;55.70;;;34.23;;
21352;SDS011;10834;52.268;6.770;2023-04-10T00:20:18;53.80;;;35.47;;
21352;SDS011;10834;52.268;6.770;2023-04-10T00:23:03;46.73;;;33.27;;
21352;SDS011;10834;52.268;6.770;2023-04-10T00:25:50;54.33;;;34.83;;
21352;SDS011;10834;52.268;6.770;2023-04-10T00:28:36;48.70;;;33.23;;
21352;SDS011;10834;52.268;6.770;2023-04-10T00:31:22;50.67;;;34.70;;
21352;SDS011;10834;52.268;6.770;2023-04-10T00:34:08;52.33;;;33.80;;
21352;SDS011;10834;52.268;6.770;2023-04-10T00:36:54;55.93;;;34.53;;
21352;SDS011;10834;52.268;6.770;2023-04-10T00:39:40;48.33;;;32.57;;
21352;SDS011;10834;52.268;6.770;2023-04-10T00:42:26;49.03;;;31.83;;
21352;SDS011;10834;52.268;6.770;2023-04-10T00:45:12;51.63;;;32.83;;
21352;SDS011;10834;52.268;6.770;2023-04-10T00:47:58;50.30;;;32.13;;
21352;SDS011;10834;52.268;6.770;2023-04-10T00:50:45;49.60;;;32.83;;
21352;SDS011;10834;52.268;6.770;2023-04-10T00:53:31;54.03;;;32.93;;
21352;SDS011;10834;52.268;6.770;2023-04-10T00:56:18;51.67;;;32.57;;
21352;SDS011;10834;52.268;6.770;2023-04-10T00:59:05;52.30;;;32.17;;
21352;SDS011;10834;52.268;6.770;2023-04-10T01:01:51;53.70;;;32.63;;
21352;SDS011;10834;52.268;6.770;2023-04-10T01:04:38;53.83;;;35.30;;
21352;SDS011;10834;52.268;6.770;2023-04-10T01:11:00;55.67;;;33.43;;
21352;SDS011;10834;52.268;6.770;2023-04-10T01:14:01;57.27;;;33.53;;
21352;SDS011;10834;52.268;6.770;2023-04-10T01:16:59;58.17;;;35.20;;
21352;SDS011;10834;52.268;6.770;2023-04-10T01:26:02;59.70;;;34.17;;
21352;SDS011;10834;52.268;6.770;2023-04-10T01:32:19;53.43;;;35.43;;
21352;SDS011;10834;52.268;6.770;2023-04-10T01:34:53;50.67;;;32.80;;
21352;SDS011;10834;52.268;6.770;2023-04-10T01:37:41;55.30;;;35.27;;
21352;SDS011;10834;52.268;6.770;2023-04-10T01:40:31;56.30;;;34.97;;
21352;SDS011;10834;52.268;6.770;2023-04-10T01:43:22;54.87;;;33.73;;
21352;SDS011;10834;52.268;6.770;2023-04-10T01:46:11;59.20;;;35.40;;
21352;SDS011;10834;52.268;6.770;2023-04-10T01:48:59;59.00;;;34.27;;
21352;SDS011;10834;52.268;6.770;2023-04-10T01:51:46;59.90;;;36.23;;
21352;SDS011;10834;52.268;6.770;2023-04-10T01:54:33;55.77;;;35.20;;
21352;SDS011;10834;52.268;6.770;2023-04-10T01:57:20;55.53;;;34.87;;
21352;SDS011;10834;52.268;6.770;2023-04-10T02:00:07;59.57;;;36.57;;
21352;SDS011;10834;52.268;6.770;2023-04-10T02:02:54;63.57;;;35.67;;
21352;SDS011;10834;52.268;6.770;2023-04-10T02:08:55;58.63;;;35.60;;
21352;SDS011;10834;52.268;6.770;2023-04-10T02:11:58;62.00;;;36.43;;
21352;SDS011;10834;52.268;6.770;2023-04-10T02:14:48;61.20;;;37.13;;
21352;SDS011;10834;52.268;6.770;2023-04-10T02:17:37;62.07;;;37.93;;
21352;SDS011;10834;52.268;6.770;2023-04-10T02:20:25;60.53;;;38.37;;
21352;SDS011;10834;52.268;6.770;2023-04-10T02:23:11;64.37;;;36.83;;
21352;SDS011;10834;52.268;6.770;2023-04-10T02:26:04;69.43;;;38.13;;
21352;SDS011;10834;52.268;6.770;2023-04-10T02:28:51;69.30;;;39.20;;
21352;SDS011;10834;52.268;6.770;2023-04-10T02:31:37;70.07;;;40.17;;
21352;SDS011;10834;52.268;6.770;2023-04-10T02:34:24;63.77;;;39.90;;
21352;SDS011;10834;52.268;6.770;2023-04-10T02:37:10;68.17;;;40.00;;
21352;SDS011;10834;52.268;6.770;2023-04-10T02:39:56;69.33;;;41.80;;
21352;SDS011;10834;52.268;6.770;2023-04-10T02:42:42;67.93;;;38.57;;
21352;SDS011;10834;52.268;6.770;2023-04-10T02:45:28;71.90;;;42.60;;
21352;SDS011;10834;52.268;6.770;2023-04-10T02:48:14;80.00;;;43.03;;
21352;SDS011;10834;52.268;6.770;2023-04-10T02:51:00;64.00;;;38.97;;
21352;SDS011;10834;52.268;6.770;2023-04-10T02:53:47;73.23;;;43.90;;
21352;SDS011;10834;52.268;6.770;2023-04-10T02:56:33;74.30;;;42.73;;
21352;SDS011;10834;52.268;6.770;2023-04-10T02:59:19;69.83;;;42.20;;
21352;SDS011;10834;52.268;6.770;2023-04-10T03:02:06;80.83;;;44.77;;
21352;SDS011;10834;52.268;6.770;2023-04-10T03:04:52;76.27;;;44.63;;
21352;SDS011;10834;52.268;6.770;2023-04-10T03:07:38;77.40;;;45.13;;
21352;SDS011;10834;52.268;6.770;2023-04-10T03:10:25;81.23;;;47.20;;
21352;SDS011;10834;52.268;6.770;2023-04-10T03:13:11;88.23;;;48.27;;
21352;SDS011;10834;52.268;6.770;2023-04-10T03:15:57;78.20;;;46.97;;
21352;SDS011;10834;52.268;6.770;2023-04-10T03:18:43;80.23;;;45.07;;
21352;SDS011;10834;52.268;6.770;2023-04-10T03:21:31;76.80;;;46.23;;
21352;SDS011;10834;52.268;6.770;2023-04-10T03:24:17;80.83;;;44.53;;
21352;SDS011;10834;52.268;6.770;2023-04-10T03:27:03;72.80;;;44.33;;
21352;SDS011;10834;52.268;6.770;2023-04-10T03:29:49;75.90;;;45.60;;
21352;SDS011;10834;52.268;6.770;2023-04-10T03:32:35;73.63;;;44.47;;
21352;SDS011;10834;52.268;6.770;2023-04-10T03:35:21;74.07;;;44.60;;
21352;SDS011;10834;52.268;6.770;2023-04-10T03:38:07;77.50;;;46.43;;
21352;SDS011;10834;52.268;6.770;2023-04-10T03:40:53;71.93;;;43.93;;
21352;SDS011;10834;52.268;6.770;2023-04-10T03:43:39;77.13;;;43.57;;
21352;SDS011;10834;52.268;6.770;2023-04-10T03:46:25;71.37;;;45.13;;
21352;SDS011;10834;52.268;6.770;2023-04-10T03:49:11;81.87;;;46.20;;
21352;SDS011;10834;52.268;6.770;2023-04-10T03:51:57;76.23;;;45.53;;
21352;SDS011;10834;52.268;6.770;2023-04-10T03:54:43;74.63;;;45.70;;
21352;SDS011;10834;52.268;6.770;2023-04-10T03:57:29;74.47;;;44.67;;
21352;SDS011;10834;52.268;6.770;2023-04-10T04:00:16;75.77;;;46.70;;
21352;SDS011;10834;52.268;6.770;2023-04-10T04:03:02;83.90;;;47.27;;
21352;SDS011;10834;52.268;6.770;2023-04-10T04:05:49;76.63;;;46.47;;
21352;SDS011;10834;52.268;6.770;2023-04-10T04:08:36;80.03;;;46.73;;
21352;SDS011;10834;52.268;6.770;2023-04-10T04:11:23;78.10;;;46.60;;
21352;SDS011;10834;52.268;6.770;2023-04-10T04:14:09;74.57;;;44.60;;
21352;SDS011;10834;52.268;6.770;2023-04-10T04:16:55;78.27;;;45.27;;
21352;SDS011;10834;52.268;6.770;2023-04-10T04:19:41;82.47;;;46.70;;
21352;SDS011;10834;52.268;6.770;2023-04-10T04:22:28;79.93;;;46.90;;
21352;SDS011;10834;52.268;6.770;2023-04-10T04:25:14;84.17;;;50.80;;
21352;SDS011;10834;52.268;6.770;2023-04-10T04:28:00;91.53;;;52.33;;
21352;SDS011;10834;52.268;6.770;2023-04-10T04:30:45;105.40;;;58.13;;
21352;SDS011;10834;52.268;6.770;2023-04-10T04:33:31;108.13;;;60.17;;
21352;SDS011;10834;52.268;6.770;2023-04-10T04:36:17;117.03;;;61.70;;
21352;SDS011;10834;52.268;6.770;2023-04-10T04:39:04;109.60;;;59.97;;
21352;SDS011;10834;52.268;6.770;2023-04-10T04:41:50;119.03;;;60.37;;
21352;SDS011;10834;52.268;6.770;2023-04-10T04:44:35;109.73;;;57.93;;
21352;SDS011;10834;52.268;6.770;2023-04-10T04:47:22;100.57;;;56.93;;
21352;SDS011;10834;52.268;6.770;2023-04-10T04:50:08;95.80;;;51.83;;
21352;SDS011;10834;52.268;6.770;2023-04-10T04:52:54;89.60;;;51.20;;
21352;SDS011;10834;52.268;6.770;2023-04-10T04:55:40;86.53;;;48.33;;
21352;SDS011;10834;52.268;6.770;2023-04-10T04:58:26;79.23;;;47.10;;
21352;SDS011;10834;52.268;6.770;2023-04-10T05:01:12;80.27;;;46.30;;
21352;SDS011;10834;52.268;6.770;2023-04-10T05:03:58;75.80;;;44.60;;
21352;SDS011;10834;52.268;6.770;2023-04-10T05:06:45;74.03;;;43.07;;
21352;SDS011;10834;52.268;6.770;2023-04-10T05:09:31;74.87;;;42.93;;
21352;SDS011;10834;52.268;6.770;2023-04-10T05:12:17;75.83;;;42.43;;
21352;SDS011;10834;52.268;6.770;2023-04-10T05:15:03;71.47;;;41.37;;
21352;SDS011;10834;52.268;6.770;2023-04-10T05:17:49;74.23;;;41.00;;
21352;SDS011;10834;52.268;6.770;2023-04-10T05:20:37;70.30;;;41.10;;
21352;SDS011;10834;52.268;6.770;2023-04-10T05:23:23;70.63;;;40.27;;
21352;SDS011;10834;52.268;6.770;2023-04-10T05:26:09;75.87;;;40.73;;
21352;SDS011;10834;52.268;6.770;2023-04-10T05:28:55;68.83;;;37.00;;
21352;SDS011;10834;52.268;6.770;2023-04-10T05:31:41;65.77;;;38.37;;
21352;SDS011;10834;52.268;6.770;2023-04-10T05:34:28;72.80;;;38.53;;
21352;SDS011;10834;52.268;6.770;2023-04-10T05:37:14;63.73;;;37.20;;
21352;SDS011;10834;52.268;6.770;2023-04-10T05:40:00;64.20;;;36.53;;
21352;SDS011;10834;52.268;6.770;2023-04-10T05:42:46;72.60;;;38.37;;
21352;SDS011;10834;52.268;6.770;2023-04-10T05:45:32;62.33;;;36.47;;
21352;SDS011;10834;52.268;6.770;2023-04-10T05:48:18;55.67;;;34.43;;
21352;SDS011;10834;52.268;6.770;2023-04-10T05:51:04;59.90;;;35.10;;
21352;SDS011;10834;52.268;6.770;2023-04-10T05:53:51;60.80;;;33.97;;
21352;SDS011;10834;52.268;6.770;2023-04-10T05:56:37;60.53;;;33.43;;
21352;SDS011;10834;52.268;6.770;2023-04-10T05:59:23;54.93;;;32.90;;
21352;SDS011;10834;52.268;6.770;2023-04-10T06:02:09;49.77;;;30.70;;
21352;SDS011;10834;52.268;6.770;2023-04-10T06:04:55;47.90;;;30.00;;
21352;SDS011;10834;52.268;6.770;2023-04-10T06:07:41;50.07;;;30.43;;
21352;SDS011;10834;52.268;6.770;2023-04-10T06:10:31;48.87;;;30.17;;
21352;SDS011;10834;52.268;6.770;2023-04-10T06:13:17;52.50;;;31.03;;
21352;SDS011;10834;52.268;6.770;2023-04-10T06:16:03;51.30;;;30.53;;
21352;SDS011;10834;52.268;6.770;2023-04-10T06:18:49;54.03;;;31.37;;
21352;SDS011;10834;52.268;6.770;2023-04-10T06:21:36;57.57;;;30.83;;
21352;SDS011;10834;52.268;6.770;2023-04-10T06:24:22;47.90;;;28.17;;
21352;SDS011;10834;52.268;6.770;2023-04-10T06:27:08;47.60;;;28.53;;
21352;SDS011;10834;52.268;6.770;2023-04-10T06:29:54;43.90;;;27.20;;
21352;SDS011;10834;52.268;6.770;2023-04-10T06:32:41;42.93;;;27.10;;
21352;SDS011;10834;52.268;6.770;2023-04-10T06:35:27;41.00;;;26.50;;
21352;SDS011;10834;52.268;6.770;2023-04-10T06:38:13;41.73;;;26.00;;
21352;SDS011;10834;52.268;6.770;2023-04-10T06:40:59;39.20;;;24.17;;
21352;SDS011;10834;52.268;6.770;2023-04-10T06:43:45;30.37;;;22.27;;
21352;SDS011;10834;52.268;6.770;2023-04-10T06:46:31;34.80;;;22.83;;
21352;SDS011;10834;52.268;6.770;2023-04-10T06:49:17;28.07;;;20.03;;
21352;SDS011;10834;52.268;6.770;2023-04-10T06:52:03;29.57;;;20.40;;
21352;SDS011;10834;52.268;6.770;2023-04-10T06:54:49;22.57;;;16.90;;
21352;SDS011;10834;52.268;6.770;2023-04-10T06:57:35;28.93;;;19.60;;
21352;SDS011;10834;52.268;6.770;2023-04-10T07:00:21;29.57;;;19.90;;
21352;SDS011;10834;52.268;6.770;2023-04-10T07:03:08;29.60;;;18.77;;
21352;SDS011;10834;52.268;6.770;2023-04-10T07:05:54;28.27;;;19.10;;
21352;SDS011;10834;52.268;6.770;2023-04-10T07:08:41;23.97;;;16.60;;
21352;SDS011;10834;52.268;6.770;2023-04-10T07:11:27;26.00;;;17.97;;
21352;SDS011;10834;52.268;6.770;2023-04-10T07:14:13;23.47;;;17.50;;
21352;SDS011;10834;52.268;6.770;2023-04-10T07:16:59;26.40;;;16.27;;
21352;SDS011;10834;52.268;6.770;2023-04-10T07:19:45;21.10;;;16.20;;
21352;SDS011;10834;52.268;6.770;2023-04-10T07:22:31;19.52;;;14.70;;
21352;SDS011;10834;52.268;6.770;2023-04-10T07:25:17;20.33;;;14.73;;
21352;SDS011;10834;52.268;6.770;2023-04-10T07:28:03;18.45;;;14.32;;
21352;SDS011;10834;52.268;6.770;2023-04-10T07:30:49;20.30;;;14.95;;
21352;SDS011;10834;52.268;6.770;2023-04-10T07:33:36;19.85;;;14.02;;
21352;SDS011;10834;52.268;6.770;2023-04-10T07:36:23;16.77;;;13.65;;
21352;SDS011;10834;52.268;6.770;2023-04-10T07:39:09;19.17;;;14.75;;
21352;SDS011;10834;52.268;6.770;2023-04-10T07:41:55;21.08;;;15.35;;
21352;SDS011;10834;52.268;6.770;2023-04-10T07:44:41;19.50;;;15.23;;
21352;SDS011;10834;52.268;6.770;2023-04-10T07:47:27;16.95;;;14.68;;
21352;SDS011;10834;52.268;6.770;2023-04-10T07:50:13;17.90;;;14.77;;
21352;SDS011;10834;52.268;6.770;2023-04-10T07:52:59;17.05;;;15.23;;
21352;SDS011;10834;52.268;6.770;2023-04-10T07:55:48;18.90;;;15.95;;
21352;SDS011;10834;52.268;6.770;2023-04-10T07:58:34;18.80;;;16.05;;
21352;SDS011;10834;52.268;6.770;2023-04-10T08:01:20;18.50;;;16.50;;
21352;SDS011;10834;52.268;6.770;2023-04-10T08:04:07;18.20;;;16.13;;
21352;SDS011;10834;52.268;6.770;2023-04-10T08:06:53;18.15;;;15.20;;
21352;SDS011;10834;52.268;6.770;2023-04-10T08:09:39;17.42;;;15.45;;
21352;SDS011;10834;52.268;6.770;2023-04-10T08:12:25;16.60;;;14.90;;
21352;SDS011;10834;52.268;6.770;2023-04-10T08:15:11;17.73;;;15.82;;
21352;SDS011;10834;52.268;6.770;2023-04-10T08:17:57;18.23;;;16.05;;
21352;SDS011;10834;52.268;6.770;2023-04-10T08:20:43;16.35;;;14.63;;
21352;SDS011;10834;52.268;6.770;2023-04-10T08:23:29;16.27;;;14.57;;
21352;SDS011;10834;52.268;6.770;2023-04-10T08:26:15;20.58;;;15.10;;
21352;SDS011;10834;52.268;6.770;2023-04-10T08:29:01;16.27;;;14.63;;
21352;SDS011;10834;52.268;6.770;2023-04-10T08:31:47;18.95;;;14.85;;
21352;SDS011;10834;52.268;6.770;2023-04-10T08:34:34;17.00;;;15.20;;
21352;SDS011;10834;52.268;6.770;2023-04-10T08:37:20;15.68;;;14.05;;
21352;SDS011;10834;52.268;6.770;2023-04-10T08:40:06;17.10;;;14.52;;
21352;SDS011;10834;52.268;6.770;2023-04-10T08:42:52;14.88;;;13.38;;
21352;SDS011;10834;52.268;6.770;2023-04-10T08:45:39;14.10;;;12.68;;
21352;SDS011;10834;52.268;6.770;2023-04-10T08:48:28;13.95;;;11.55;;
21352;SDS011;10834;52.268;6.770;2023-04-10T08:51:20;12.90;;;11.48;;
21352;SDS011;10834;52.268;6.770;2023-04-10T08:54:17;13.52;;;12.10;;
21352;SDS011;10834;52.268;6.770;2023-04-10T08:57:05;15.80;;;11.38;;
21352;SDS011;10834;52.268;6.770;2023-04-10T08:59:53;12.43;;;10.65;;
21352;SDS011;10834;52.268;6.770;2023-04-10T09:02:39;11.80;;;10.52;;
21352;SDS011;10834;52.268;6.770;2023-04-10T09:05:26;14.93;;;11.63;;
21352;SDS011;10834;52.268;6.770;2023-04-10T09:08:13;11.60;;;10.40;;
21352;SDS011;10834;52.268;6.770;2023-04-10T09:11:00;11.55;;;9.18;;
21352;SDS011;10834;52.268;6.770;2023-04-10T09:13:46;10.23;;;9.23;;
21352;SDS011;10834;52.268;6.770;2023-04-10T09:16:32;10.15;;;8.05;;
21352;SDS011;10834;52.268;6.770;2023-04-10T09:19:29;8.02;;;7.22;;
21352;SDS011;10834;52.268;6.770;2023-04-10T09:22:17;8.45;;;7.72;;
21352;SDS011;10834;52.268;6.770;2023-04-10T09:25:29;8.15;;;7.35;;
21352;SDS011;10834;52.268;6.770;2023-04-10T09:28:24;7.28;;;6.57;;
21352;SDS011;10834;52.268;6.770;2023-04-10T09:31:31;7.32;;;6.63;;
21352;SDS011;10834;52.268;6.770;2023-04-10T09:34:17;7.22;;;6.63;;
21352;SDS011;10834;52.268;6.770;2023-04-10T09:37:07;7.72;;;6.93;;
21352;SDS011;10834;52.268;6.770;2023-04-10T09:39:53;7.43;;;6.47;;
21352;SDS011;10834;52.268;6.770;2023-04-10T09:42:40;6.53;;;5.93;;
21352;SDS011;10834;52.268;6.770;2023-04-10T09:45:26;6.55;;;5.90;;
21352;SDS011;10834;52.268;6.770;2023-04-10T09:48:31;6.05;;;5.55;;
21352;SDS011;10834;52.268;6.770;2023-04-10T09:51:29;6.07;;;5.55;;
21352;SDS011;10834;52.268;6.770;2023-04-10T09:54:16;5.57;;;5.07;;
21352;SDS011;10834;52.268;6.770;2023-04-10T09:57:02;5.90;;;5.40;;
21352;SDS011;10834;52.268;6.770;2023-04-10T09:59:50;5.53;;;5.03;;
21352;SDS011;10834;52.268;6.770;2023-04-10T10:02:40;5.80;;;5.28;;
21352;SDS011;10834;52.268;6.770;2023-04-10T10:05:27;5.82;;;5.32;;
21352;SDS011;10834;52.268;6.770;2023-04-10T10:08:15;5.68;;;5.05;;
21352;SDS011;10834;52.268;6.770;2023-04-10T10:11:01;5.38;;;4.88;;
21352;SDS011;10834;52.268;6.770;2023-04-10T10:13:52;4.95;;;4.60;;
21352;SDS011;10834;52.268;6.770;2023-04-10T10:16:50;6.05;;;5.15;;
21352;SDS011;10834;52.268;6.770;2023-04-10T10:22:44;4.95;;;4.55;;
21352;SDS011;10834;52.268;6.770;2023-04-10T10:25:30;5.05;;;4.55;;
21352;SDS011;10834;52.268;6.770;2023-04-10T10:28:20;5.72;;;4.88;;
21352;SDS011;10834;52.268;6.770;2023-04-10T10:31:06;5.07;;;4.20;;
21352;SDS011;10834;52.268;6.770;2023-04-10T10:33:54;4.85;;;4.38;;
21352;SDS011;10834;52.268;6.770;2023-04-10T10:36:40;4.85;;;4.35;;
21352;SDS011;10834;52.268;6.770;2023-04-10T10:42:34;5.18;;;4.72;;
21352;SDS011;10834;52.268;6.770;2023-04-10T10:48:20;4.55;;;4.15;;
21352;SDS011;10834;52.268;6.770;2023-04-10T10:51:06;5.30;;;4.80;;
21352;SDS011;10834;52.268;6.770;2023-04-10T10:53:52;4.78;;;4.38;;
21352;SDS011;10834;52.268;6.770;2023-04-10T10:56:38;5.18;;;4.68;;
21352;SDS011;10834;52.268;6.770;2023-04-10T11:02:31;4.38;;;3.95;;
21352;SDS011;10834;52.268;6.770;2023-04-10T11:08:48;3.97;;;3.60;;
21352;SDS011;10834;52.268;6.770;2023-04-10T11:11:55;4.50;;;4.10;;
21352;SDS011;10834;52.268;6.770;2023-04-10T11:14:44;4.55;;;3.95;;
21352;SDS011;10834;52.268;6.770;2023-04-10T11:17:51;5.50;;;3.78;;
21352;SDS011;10834;52.268;6.770;2023-04-10T11:21:06;4.97;;;3.90;;
21352;SDS011;10834;52.268;6.770;2023-04-10T11:26:43;5.50;;;4.95;;
21352;SDS011;10834;52.268;6.770;2023-04-10T11:29:32;5.55;;;4.72;;
21352;SDS011;10834;52.268;6.770;2023-04-10T11:32:18;4.55;;;4.15;;
21352;SDS011;10834;52.268;6.770;2023-04-10T11:35:05;8.40;;;5.22;;
21352;SDS011;10834;52.268;6.770;2023-04-10T11:37:51;6.55;;;4.65;;
21352;SDS011;10834;52.268;6.770;2023-04-10T11:40:52;4.95;;;4.15;;
21352;SDS011;10834;52.268;6.770;2023-04-10T11:43:43;5.30;;;4.18;;
21352;SDS011;10834;52.268;6.770;2023-04-10T11:46:29;3.97;;;3.60;;
21352;SDS011;10834;52.268;6.770;2023-04-10T11:49:20;7.78;;;4.60;;
21352;SDS011;10834;52.268;6.770;2023-04-10T11:52:07;4.95;;;4.55;;
21352;SDS011;10834;52.268;6.770;2023-04-10T11:54:54;4.85;;;4.45;;
21352;SDS011;10834;52.268;6.770;2023-04-10T11:57:40;4.13;;;3.45;;
21352;SDS011;10834;52.268;6.770;2023-04-10T12:00:26;4.22;;;3.65;;
21352;SDS011;10834;52.268;6.770;2023-04-10T12:03:12;4.28;;;3.80;;
21352;SDS011;10834;52.268;6.770;2023-04-10T12:05:58;5.18;;;3.97;;
21352;SDS011;10834;52.268;6.770;2023-04-10T12:08:45;7.80;;;3.92;;
21352;SDS011;10834;52.268;6.770;2023-04-10T12:11:35;3.90;;;3.60;;
21352;SDS011;10834;52.268;6.770;2023-04-10T12:14:22;4.35;;;3.78;;
21352;SDS011;10834;52.268;6.770;2023-04-10T12:17:13;4.20;;;3.80;;
21352;SDS011;10834;52.268;6.770;2023-04-10T12:20:01;4.15;;;3.58;;
21352;SDS011;10834;52.268;6.770;2023-04-10T12:22:48;3.63;;;3.30;;
21352;SDS011;10834;52.268;6.770;2023-04-10T12:25:35;3.42;;;3.03;;
21352;SDS011;10834;52.268;6.770;2023-04-10T12:28:21;5.28;;;3.28;;
21352;SDS011;10834;52.268;6.770;2023-04-10T12:31:07;3.58;;;3.28;;
21352;SDS011;10834;52.268;6.770;2023-04-10T12:33:53;5.03;;;3.90;;
21352;SDS011;10834;52.268;6.770;2023-04-10T12:36:42;4.80;;;3.40;;
21352;SDS011;10834;52.268;6.770;2023-04-10T12:39:38;3.28;;;3.00;;
21352;SDS011;10834;52.268;6.770;2023-04-10T12:42:24;2.85;;;2.60;;
21352;SDS011;10834;52.268;6.770;2023-04-10T12:45:10;4.93;;;3.55;;
21352;SDS011;10834;52.268;6.770;2023-04-10T12:47:58;3.72;;;3.40;;
21352;SDS011;10834;52.268;6.770;2023-04-10T12:50:48;3.92;;;3.20;;
21352;SDS011;10834;52.268;6.770;2023-04-10T12:53:41;3.33;;;3.03;;
21352;SDS011;10834;52.268;6.770;2023-04-10T12:56:38;3.40;;;3.10;;
21352;SDS011;10834;52.268;6.770;2023-04-10T12:59:26;3.47;;;3.17;;
21352;SDS011;10834;52.268;6.770;2023-04-10T13:02:13;3.40;;;3.10;;
21352;SDS011;10834;52.268;6.770;2023-04-10T13:05:00;3.08;;;2.78;;
21352;SDS011;10834;52.268;6.770;2023-04-10T13:07:46;2.95;;;2.72;;
21352;SDS011;10834;52.268;6.770;2023-04-10T13:10:36;3.15;;;2.83;;
21352;SDS011;10834;52.268;6.770;2023-04-10T13:13:23;3.20;;;2.90;;
21352;SDS011;10834;52.268;6.770;2023-04-10T13:16:09;3.90;;;3.25;;
21352;SDS011;10834;52.268;6.770;2023-04-10T13:18:57;4.90;;;3.08;;
21352;SDS011;10834;52.268;6.770;2023-04-10T13:21:43;3.85;;;3.33;;
21352;SDS011;10834;52.268;6.770;2023-04-10T13:24:29;4.22;;;3.83;;
21352;SDS011;10834;52.268;6.770;2023-04-10T13:27:16;3.80;;;3.45;;
21352;SDS011;10834;52.268;6.770;2023-04-10T13:30:02;4.15;;;3.45;;
21352;SDS011;10834;52.268;6.770;2023-04-10T13:32:48;5.22;;;2.90;;
21352;SDS011;10834;52.268;6.770;2023-04-10T13:35:34;3.03;;;2.83;;
21352;SDS011;10834;52.268;6.770;2023-04-10T13:38:20;4.22;;;3.55;;
21352;SDS011;10834;52.268;6.770;2023-04-10T13:41:06;3.83;;;3.03;;
21352;SDS011;10834;52.268;6.770;2023-04-10T13:43:53;3.88;;;3.22;;
21352;SDS011;10834;52.268;6.770;2023-04-10T13:46:39;3.15;;;2.90;;
21352;SDS011;10834;52.268;6.770;2023-04-10T13:49:25;3.80;;;2.92;;
21352;SDS011;10834;52.268;6.770;2023-04-10T13:52:14;5.53;;;3.67;;
21352;SDS011;10834;52.268;6.770;2023-04-10T13:55:00;3.50;;;3.10;;
21352;SDS011;10834;52.268;6.770;2023-04-10T13:57:46;3.55;;;2.75;;
21352;SDS011;10834;52.268;6.770;2023-04-10T14:00:32;4.28;;;2.80;;
21352;SDS011;10834;52.268;6.770;2023-04-10T14:03:19;4.25;;;3.30;;
21352;SDS011;10834;52.268;6.770;2023-04-10T14:06:05;4.00;;;3.33;;
21352;SDS011;10834;52.268;6.770;2023-04-10T14:08:52;4.80;;;3.33;;
21352;SDS011;10834;52.268;6.770;2023-04-10T14:11:38;3.67;;;3.00;;
21352;SDS011;10834;52.268;6.770;2023-04-10T14:14:24;5.47;;;2.95;;
21352;SDS011;10834;52.268;6.770;2023-04-10T14:17:10;5.57;;;3.33;;
21352;SDS011;10834;52.268;6.770;2023-04-10T14:19:56;4.05;;;3.10;;
21352;SDS011;10834;52.268;6.770;2023-04-10T14:22:42;2.60;;;2.40;;
21352;SDS011;10834;52.268;6.770;2023-04-10T14:25:28;3.83;;;3.10;;
21352;SDS011;10834;52.268;6.770;2023-04-10T14:28:14;3.83;;;3.28;;
21352;SDS011;10834;52.268;6.770;2023-04-10T14:31:04;3.30;;;3.00;;
21352;SDS011;10834;52.268;6.770;2023-04-10T14:33:50;5.80;;;3.55;;
21352;SDS011;10834;52.268;6.770;2023-04-10T14:36:36;4.78;;;4.15;;
21352;SDS011;10834;52.268;6.770;2023-04-10T14:39:23;4.20;;;3.78;;
21352;SDS011;10834;52.268;6.770;2023-04-10T14:42:10;4.43;;;3.20;;
21352;SDS011;10834;52.268;6.770;2023-04-10T14:44:56;2.70;;;2.50;;
21352;SDS011;10834;52.268;6.770;2023-04-10T14:47:43;3.28;;;2.80;;
21352;SDS011;10834;52.268;6.770;2023-04-10T14:50:32;3.90;;;3.22;;
21352;SDS011;10834;52.268;6.770;2023-04-10T14:53:18;3.05;;;2.40;;
21352;SDS011;10834;52.268;6.770;2023-04-10T14:56:12;3.75;;;3.00;;
21352;SDS011;10834;52.268;6.770;2023-04-10T14:58:58;5.13;;;3.10;;
21352;SDS011;10834;52.268;6.770;2023-04-10T15:01:44;3.85;;;3.30;;
21352;SDS011;10834;52.268;6.770;2023-04-10T15:04:30;4.82;;;3.50;;
21352;SDS011;10834;52.268;6.770;2023-04-10T15:07:16;2.83;;;2.47;;
21352;SDS011;10834;52.268;6.770;2023-04-10T15:10:03;3.92;;;2.95;;
21352;SDS011;10834;52.268;6.770;2023-04-10T15:12:49;6.32;;;3.67;;
21352;SDS011;10834;52.268;6.770;2023-04-10T15:15:35;3.78;;;2.75;;
21352;SDS011;10834;52.268;6.770;2023-04-10T15:18:21;4.18;;;3.15;;
21352;SDS011;10834;52.268;6.770;2023-04-10T15:21:07;6.03;;;2.70;;
21352;SDS011;10834;52.268;6.770;2023-04-10T15:23:53;4.10;;;2.75;;
21352;SDS011;10834;52.268;6.770;2023-04-10T15:26:43;2.70;;;2.30;;
21352;SDS011;10834;52.268;6.770;2023-04-10T15:29:30;3.88;;;2.70;;
21352;SDS011;10834;52.268;6.770;2023-04-10T15:32:16;2.85;;;2.55;;
21352;SDS011;10834;52.268;6.770;2023-04-10T15:35:02;5.00;;;4.40;;
21352;SDS011;10834;52.268;6.770;2023-04-10T15:37:48;9.25;;;8.27;;
21352;SDS011;10834;52.268;6.770;2023-04-10T15:40:34;3.97;;;3.63;;
21352;SDS011;10834;52.268;6.770;2023-04-10T15:43:20;5.40;;;4.90;;
21352;SDS011;10834;52.268;6.770;2023-04-10T15:46:07;3.28;;;2.97;;
21352;SDS011;10834;52.268;6.770;2023-04-10T15:48:53;3.45;;;3.15;;
21352;SDS011;10834;52.268;6.770;2023-04-10T15:51:39;3.25;;;2.95;;
21352;SDS011;10834;52.268;6.770;2023-04-10T15:54:25;2.67;;;2.25;;
21352;SDS011;10834;52.268;6.770;2023-04-10T15:57:11;2.60;;;2.40;;
21352;SDS011;10834;52.268;6.770;2023-04-10T15:59:57;2.55;;;2.35;;
21352;SDS011;10834;52.268;6.770;2023-04-10T16:02:44;3.15;;;2.78;;
21352;SDS011;10834;52.268;6.770;2023-04-10T16:05:31;3.08;;;2.78;;
21352;SDS011;10834;52.268;6.770;2023-04-10T16:08:17;5.00;;;2.47;;
21352;SDS011;10834;52.268;6.770;2023-04-10T16:11:03;3.55;;;2.42;;
21352;SDS011;10834;52.268;6.770;2023-04-10T16:13:50;3.20;;;2.42;;
21352;SDS011;10834;52.268;6.770;2023-04-10T16:16:36;2.95;;;2.65;;
21352;SDS011;10834;52.268;6.770;2023-04-10T16:19:22;2.78;;;2.58;;
21352;SDS011;10834;52.268;6.770;2023-04-10T16:22:08;2.92;;;2.72;;
21352;SDS011;10834;52.268;6.770;2023-04-10T16:24:55;2.93;;;2.40;;
21352;SDS011;10834;52.268;6.770;2023-04-10T16:27:41;4.32;;;2.85;;
21352;SDS011;10834;52.268;6.770;2023-04-10T16:30:27;3.08;;;2.80;;
21352;SDS011;10834;52.268;6.770;2023-04-10T16:33:13;5.25;;;3.20;;
21352;SDS011;10834;52.268;6.770;2023-04-10T16:35:59;3.60;;;2.45;;
21352;SDS011;10834;52.268;6.770;2023-04-10T16:38:49;3.97;;;3.10;;
21352;SDS011;10834;52.268;6.770;2023-04-10T16:41:35;3.85;;;3.05;;
21352;SDS011;10834;52.268;6.770;2023-04-10T16:44:21;4.78;;;4.38;;
21352;SDS011;10834;52.268;6.770;2023-04-10T16:47:07;4.32;;;3.65;;
21352;SDS011;10834;52.268;6.770;2023-04-10T16:49:54;5.38;;;3.53;;
21352;SDS011;10834;52.268;6.770;2023-04-10T16:52:40;3.63;;;3.33;;
21352;SDS011;10834;52.268;6.770;2023-04-10T16:55:26;4.03;;;3.67;;
21352;SDS011;10834;52.268;6.770;2023-04-10T16:58:12;3.95;;;3.38;;
21352;SDS011;10834;52.268;6.770;2023-04-10T17:00:58;4.17;;;3.63;;
21352;SDS011;10834;52.268;6.770;2023-04-10T17:03:44;3.72;;;3.40;;
21352;SDS011;10834;52.268;6.770;2023-04-10T17:06:31;5.73;;;3.77;;